KTOI

Troy Municipal at N Kenneth Campbell Field Airport

Troy, Alabama, USA
METAR KTOI 160053Z AUTO 20004KT 10SM OVC039 11/09 A3006 RMK AO2 SLP178 T01060089
Observed Flight Rules
Dec-16 @ 00:53 UTC (22 minutes ago) Visual Flight Rules
Wind Visibility Clouds
200° at 4 knots 10 miles
  • Overcast at 3,900' AGL
Temperatures Readings
Current 11°C / 52°F
Dewpoint 9°C / 48°F
Humidity 88%
Altimeter 30.06" Hg
Pressure 1017.8 hPa
Elevation 118
METAR KTOI 160053Z AUTO 20004KT 10SM OVC039 11/09 A3006 RMK AO2 SLP178 T01060089
Observed Flight Rules
Dec-16 @ 00:53 UTC
(22 minutes ago)
VFR
Wind Visibility
200° at 4 knots 10 miles
Clouds
  • Overcast at 3,900' AGL
Temperature Dewpoint
11°C / 52°F 9°C / 48°F
Humidity Altimeter Pressure
88% 30.06" Hg 1017.8 hPa